Hovedside
METAR-TAF:

METAR-TAF

Lufthavner :

Skövde, Sverige

breddegrad: 58-27N, lengdegrad: 013-58E, høyde over havet: 98 m

Gjeldene værobservasjon

Denne rapporten ble laget for 28 minutter siden, klokken 18:20 UTC
Vind 6 kt fra Nordøst
Temperatur 1°C
Luftfuktighet 86%
Trykk 1036 hPa
Sikt 10 km eller mer

METAR: ESGR 191820Z AUTO 04006KT 9999 OVC014/// 01/M01 Q1036

Tid: 19:48 (18:48 UTC)


TAF: fraværende

Værobservasjoner og værvarsel for over 4000 flyplasser (METAR- og TAF-rapporter).

Tilgjengelige stasjoner er representert av de røde og gule prikkene på kartet.

Hold musepekeren over prikken for å se navnet på stasjonen.

Klikk så for å se værobservasjoner og -varsler.

For å forandre kartet kan du klikke på den grønne knappen med svart kryss for å zoome inn, på den grønne knappen med strek for å zoome ut, eller på de grønne pilene for å se tilstøtende kart.


METAR-TAF: